createdAt,value
2022-10-19T00:00:14.867Z,5.50
2022-10-19T00:00:45.441Z,9.30
2022-10-19T00:01:16.059Z,6.40
2022-10-19T00:01:46.684Z,8.60
2022-10-19T00:02:17.289Z,6.50
2022-10-19T00:02:47.853Z,8.80
2022-10-19T00:03:22.257Z,8.60
2022-10-19T00:04:19.739Z,4.80
2022-10-19T00:04:50.322Z,6.60
2022-10-19T00:05:20.890Z,7.70
2022-10-19T00:05:51.463Z,5.70
2022-10-19T00:06:22.031Z,10.00
2022-10-19T00:06:52.580Z,5.30
2022-10-19T00:07:23.134Z,6.70
2022-10-19T00:07:53.739Z,8.30
2022-10-19T00:08:24.304Z,6.80
2022-10-19T00:08:54.881Z,5.70
2022-10-19T00:09:25.466Z,5.80
2022-10-19T00:09:56.043Z,6.60
2022-10-19T00:10:26.646Z,7.10
2022-10-19T00:10:57.198Z,9.30
2022-10-19T00:11:27.774Z,7.40
2022-10-19T00:11:58.336Z,5.10
2022-10-19T00:12:28.928Z,7.40
2022-10-19T00:12:59.478Z,7.00
2022-10-19T00:13:30.071Z,7.60
2022-10-19T00:14:00.654Z,7.20
2022-10-19T00:14:31.169Z,6.50
2022-10-19T00:15:01.745Z,5.20
2022-10-19T00:15:32.325Z,6.30
2022-10-19T00:16:03.635Z,4.50
2022-10-19T00:16:33.888Z,5.20
2022-10-19T00:17:04.487Z,5.40
2022-10-19T00:17:35.304Z,7.20
2022-10-19T00:18:05.963Z,6.10
2022-10-19T00:18:36.498Z,8.30
2022-10-19T00:19:07.031Z,7.50
2022-10-19T00:19:37.615Z,5.80
2022-10-19T00:20:08.186Z,6.20
2022-10-19T00:20:38.766Z,9.30
2022-10-19T00:21:09.338Z,5.10
2022-10-19T00:21:40.038Z,5.30
2022-10-19T00:22:13.138Z,7.20
2022-10-19T00:22:41.505Z,6.70
2022-10-19T00:23:12.033Z,7.40
2022-10-19T00:23:42.637Z,9.70
2022-10-19T00:24:13.164Z,6.00
2022-10-19T00:24:43.734Z,5.60
2022-10-19T00:25:14.285Z,7.30
2022-10-19T00:25:44.847Z,7.60
2022-10-19T00:26:15.399Z,7.50
2022-10-19T00:26:46.007Z,5.70
2022-10-19T00:27:16.601Z,6.50
2022-10-19T00:27:47.174Z,5.90
2022-10-19T00:28:17.736Z,9.30
2022-10-19T00:28:48.384Z,8.70
2022-10-19T00:29:18.956Z,5.50
2022-10-19T00:29:49.551Z,9.80
2022-10-19T00:30:20.125Z,8.80
2022-10-19T00:30:50.749Z,6.00
2022-10-19T00:31:21.289Z,5.60
2022-10-19T00:31:51.847Z,6.70
2022-10-19T00:32:22.429Z,5.50
2022-10-19T00:32:52.975Z,5.40
2022-10-19T00:33:23.562Z,5.90
2022-10-19T00:33:54.116Z,6.40
2022-10-19T00:34:24.675Z,6.00
2022-10-19T00:34:55.272Z,7.20
2022-10-19T00:35:25.877Z,5.90
2022-10-19T00:35:56.453Z,5.70
2022-10-19T00:36:27.007Z,7.20
2022-10-19T00:36:57.572Z,5.40
2022-10-19T00:37:28.160Z,6.90
2022-10-19T00:37:58.717Z,7.30
2022-10-19T00:38:29.303Z,7.30
2022-10-19T00:38:59.881Z,9.10
2022-10-19T00:39:30.461Z,5.80
2022-10-19T00:40:01.080Z,5.90
2022-10-19T00:40:31.628Z,7.00
2022-10-19T00:41:02.226Z,10.60
2022-10-19T00:41:32.792Z,7.70
2022-10-19T00:42:03.335Z,7.70
2022-10-19T00:42:34.299Z,9.40
2022-10-19T00:43:04.479Z,7.20
2022-10-19T00:43:35.038Z,10.40
2022-10-19T00:44:05.606Z,7.80
2022-10-19T00:44:36.142Z,10.80
2022-10-19T00:45:06.716Z,7.60
2022-10-19T00:45:37.276Z,8.80
2022-10-19T00:46:07.876Z,8.40
2022-10-19T00:46:38.460Z,7.10
2022-10-19T00:47:09.019Z,7.80
2022-10-19T00:47:39.595Z,9.10
2022-10-19T00:48:10.141Z,7.20
2022-10-19T00:48:40.721Z,7.70
2022-10-19T00:49:11.305Z,9.70
2022-10-19T00:49:41.876Z,9.60
2022-10-19T00:50:12.440Z,8.10
2022-10-19T00:50:42.968Z,7.00
2022-10-19T00:51:13.546Z,7.60
2022-10-19T00:51:44.099Z,9.70
2022-10-19T00:52:14.669Z,7.80
2022-10-19T00:52:45.247Z,6.40
2022-10-19T00:53:15.796Z,7.30
2022-10-19T00:53:46.380Z,10.50
2022-10-19T00:54:16.976Z,6.60
2022-10-19T00:54:47.544Z,7.70
2022-10-19T00:55:18.117Z,9.80
2022-10-19T00:55:48.680Z,8.20
2022-10-19T00:56:19.263Z,7.90
2022-10-19T00:56:49.857Z,7.30
2022-10-19T00:57:20.385Z,5.80
2022-10-19T00:58:21.541Z,7.80
2022-10-19T00:58:52.138Z,7.50
2022-10-19T00:59:22.705Z,7.40
2022-10-19T00:59:53.304Z,7.90
2022-10-19T01:00:23.880Z,6.60
2022-10-19T01:00:54.500Z,7.80
2022-10-19T01:01:25.133Z,7.90
2022-10-19T01:01:55.709Z,6.90
2022-10-19T01:02:26.275Z,8.20
2022-10-19T01:02:57.000Z,6.40
2022-10-19T01:03:27.542Z,6.50
2022-10-19T01:03:58.117Z,7.20
2022-10-19T01:04:28.659Z,6.60
2022-10-19T01:04:59.194Z,7.00
2022-10-19T01:05:29.777Z,8.00
2022-10-19T01:06:00.360Z,7.30
2022-10-19T01:06:30.941Z,6.70
2022-10-19T01:07:01.516Z,13.30
2022-10-19T01:07:32.400Z,6.60
2022-10-19T01:08:02.774Z,9.20
2022-10-19T01:08:33.341Z,7.70
2022-10-19T01:09:03.886Z,6.50
2022-10-19T01:09:34.478Z,6.80
2022-10-19T01:10:05.056Z,8.20
2022-10-19T01:10:35.620Z,6.00
2022-10-19T01:11:06.200Z,7.90
2022-10-19T01:11:36.752Z,6.50
2022-10-19T01:12:07.311Z,7.30
2022-10-19T01:12:37.902Z,11.00
2022-10-19T01:13:08.496Z,6.80
2022-10-19T01:13:39.099Z,6.90
2022-10-19T01:14:09.666Z,8.50
2022-10-19T01:14:40.280Z,7.90
2022-10-19T01:15:10.854Z,9.50
2022-10-19T01:15:41.462Z,7.30
2022-10-19T01:16:12.036Z,11.40
2022-10-19T01:16:42.595Z,8.40
2022-10-19T01:17:13.173Z,12.20
2022-10-19T01:17:43.739Z,8.70
2022-10-19T01:18:14.344Z,8.90
2022-10-19T01:18:44.922Z,7.60
2022-10-19T01:19:15.479Z,6.50
2022-10-19T01:19:46.048Z,9.50
2022-10-19T01:20:16.616Z,8.60
2022-10-19T01:20:47.188Z,9.40
2022-10-19T01:21:17.772Z,6.40
2022-10-19T01:21:48.337Z,8.20
2022-10-19T01:22:18.920Z,7.40
2022-10-19T01:22:49.495Z,6.20
2022-10-19T01:23:20.036Z,9.50
2022-10-19T01:23:50.580Z,12.30
2022-10-19T01:24:21.178Z,9.10
2022-10-19T01:24:51.815Z,8.00
2022-10-19T01:25:22.382Z,7.10
2022-10-19T01:25:52.983Z,7.20
2022-10-19T01:26:23.560Z,8.60
2022-10-19T01:26:54.115Z,6.40
2022-10-19T01:27:24.669Z,8.30
2022-10-19T01:27:55.234Z,5.80
2022-10-19T01:28:25.819Z,6.70
2022-10-19T01:28:56.468Z,9.60
2022-10-19T01:29:27.056Z,7.50
2022-10-19T01:29:57.636Z,8.10
2022-10-19T01:30:28.223Z,8.70
2022-10-19T01:30:58.764Z,6.50
2022-10-19T01:31:29.330Z,7.50
2022-10-19T01:31:59.900Z,7.20
2022-10-19T01:32:30.451Z,7.80
2022-10-19T01:33:01.014Z,9.40
2022-10-19T01:33:31.614Z,7.40
2022-10-19T01:34:02.172Z,11.50
2022-10-19T01:34:32.777Z,9.50
2022-10-19T01:35:03.379Z,8.90
2022-10-19T01:35:33.962Z,8.90
2022-10-19T01:36:04.530Z,9.80
2022-10-19T01:36:35.103Z,8.70
2022-10-19T01:37:05.680Z,9.10
2022-10-19T01:37:36.511Z,7.20
2022-10-19T01:38:07.194Z,10.60
2022-10-19T01:38:37.766Z,8.40
2022-10-19T01:39:08.330Z,10.60
2022-10-19T01:39:38.917Z,8.80
2022-10-19T01:40:09.494Z,8.00
2022-10-19T01:40:40.075Z,9.40
2022-10-19T01:41:10.613Z,10.10
2022-10-19T01:41:41.155Z,10.20
2022-10-19T01:42:11.707Z,11.60
2022-10-19T01:42:42.343Z,9.90
2022-10-19T01:43:12.919Z,9.30
2022-10-19T01:43:43.484Z,13.40
2022-10-19T01:44:14.066Z,9.50
2022-10-19T01:44:44.627Z,13.60
2022-10-19T01:45:15.213Z,9.40
2022-10-19T01:45:45.775Z,10.50
2022-10-19T01:46:16.337Z,11.20
2022-10-19T01:46:46.955Z,11.40
2022-10-19T01:47:17.519Z,10.30
2022-10-19T01:47:48.104Z,16.00
2022-10-19T01:48:18.686Z,14.70
2022-10-19T01:48:49.286Z,15.10
2022-10-19T01:49:19.854Z,15.60
2022-10-19T01:49:50.429Z,16.80
2022-10-19T01:50:20.979Z,17.10
2022-10-19T01:50:51.512Z,13.70
2022-10-19T01:51:22.072Z,14.70
2022-10-19T01:51:52.682Z,16.80
2022-10-19T01:52:23.254Z,14.00
2022-10-19T01:52:53.821Z,14.60
2022-10-19T01:53:24.368Z,14.40
2022-10-19T01:53:54.948Z,14.20
2022-10-19T01:54:25.520Z,18.40
2022-10-19T01:54:56.121Z,20.20
2022-10-19T01:55:26.696Z,16.30
2022-10-19T01:55:57.271Z,19.80
2022-10-19T01:56:27.841Z,14.70
2022-10-19T01:56:58.434Z,19.20
2022-10-19T01:57:29.007Z,22.70
2022-10-19T01:57:59.587Z,21.70
2022-10-19T01:58:30.158Z,16.80
2022-10-19T01:59:00.732Z,16.80
2022-10-19T01:59:31.414Z,20.50
2022-10-19T02:00:01.949Z,16.70
2022-10-19T02:00:32.527Z,18.60
2022-10-19T02:01:03.136Z,12.40
2022-10-19T02:01:33.690Z,19.00
2022-10-19T02:02:04.257Z,21.60
2022-10-19T02:02:35.173Z,16.70
2022-10-19T02:03:05.350Z,18.70
2022-10-19T02:03:35.907Z,24.80
2022-10-19T02:04:06.514Z,22.20
2022-10-19T02:04:37.069Z,21.30
2022-10-19T02:05:07.659Z,22.60
2022-10-19T02:05:38.248Z,21.10
2022-10-19T02:06:08.794Z,20.90
2022-10-19T02:06:39.361Z,21.80
2022-10-19T02:07:09.944Z,20.90
2022-10-19T02:07:40.520Z,19.10
2022-10-19T02:08:11.109Z,21.30
2022-10-19T02:08:41.670Z,19.70
2022-10-19T02:09:12.250Z,19.50
2022-10-19T02:09:42.791Z,22.80
2022-10-19T02:10:44.408Z,21.50
2022-10-19T02:11:14.980Z,19.80
2022-10-19T02:11:48.970Z,22.40
2022-10-19T02:12:16.306Z,25.00
2022-10-19T02:12:46.864Z,19.50
2022-10-19T02:13:17.588Z,20.90
2022-10-19T02:13:48.166Z,19.50
2022-10-19T02:14:18.744Z,23.40
2022-10-19T02:14:49.315Z,23.20
2022-10-19T02:15:19.883Z,21.20
2022-10-19T02:15:50.455Z,21.50
2022-10-19T02:16:21.050Z,19.40
2022-10-19T02:16:51.637Z,20.80
2022-10-19T02:17:22.265Z,25.30
2022-10-19T02:17:52.840Z,20.60
2022-10-19T02:18:23.417Z,23.40
2022-10-19T02:18:53.991Z,20.70
2022-10-19T02:19:55.156Z,20.20
2022-10-19T02:20:25.724Z,22.30
2022-10-19T02:20:56.299Z,20.20
2022-10-19T02:21:26.887Z,20.60
2022-10-19T02:21:57.458Z,20.60
2022-10-19T02:22:28.068Z,20.30
2022-10-19T02:22:58.645Z,20.10
2022-10-19T02:23:29.236Z,21.10
2022-10-19T02:23:59.813Z,19.90
2022-10-19T02:24:30.354Z,20.70
2022-10-19T02:25:00.917Z,20.40
2022-10-19T02:25:31.494Z,19.40
2022-10-19T02:26:02.065Z,20.80
2022-10-19T02:26:32.653Z,26.50
2022-10-19T02:27:03.241Z,20.10
2022-10-19T02:27:33.839Z,20.90
2022-10-19T02:28:04.396Z,19.30
2022-10-19T02:28:34.963Z,21.20
2022-10-19T02:29:05.523Z,17.20
2022-10-19T02:29:36.100Z,20.70
2022-10-19T02:30:06.664Z,20.40
2022-10-19T02:30:37.250Z,20.80
2022-10-19T02:31:07.816Z,21.50
2022-10-19T02:31:38.351Z,21.40
2022-10-19T02:32:08.932Z,18.80
2022-10-19T02:32:39.482Z,18.40
2022-10-19T02:33:10.028Z,23.00
2022-10-19T02:33:40.591Z,19.70
2022-10-19T02:34:11.152Z,16.90
2022-10-19T02:34:41.767Z,21.70
2022-10-19T02:35:12.324Z,18.20
2022-10-19T02:35:42.893Z,19.20
2022-10-19T02:36:13.473Z,18.70
2022-10-19T02:36:44.050Z,22.30
2022-10-19T02:37:14.709Z,23.10
2022-10-19T02:37:45.240Z,17.30
2022-10-19T02:38:15.824Z,20.50
2022-10-19T02:38:46.403Z,19.50
2022-10-19T02:39:16.973Z,20.90
2022-10-19T02:39:47.511Z,21.20
2022-10-19T02:40:18.055Z,19.70
2022-10-19T02:40:48.624Z,17.20
2022-10-19T02:41:19.184Z,19.00
2022-10-19T02:41:49.789Z,18.70
2022-10-19T02:42:20.347Z,20.90
2022-10-19T02:42:50.921Z,18.40
2022-10-19T02:43:21.505Z,14.60
2022-10-19T02:43:52.088Z,17.50
2022-10-19T02:44:22.680Z,19.50
2022-10-19T02:44:53.238Z,16.40
2022-10-19T02:45:23.809Z,21.40
2022-10-19T02:45:54.363Z,18.40
2022-10-19T02:46:24.928Z,23.20
2022-10-19T02:46:55.465Z,19.60
2022-10-19T02:47:26.057Z,18.90
2022-10-19T02:47:56.645Z,17.30
2022-10-19T02:48:27.225Z,17.70
2022-10-19T02:48:57.784Z,19.50
2022-10-19T02:49:28.348Z,19.10
2022-10-19T02:49:58.949Z,16.10
2022-10-19T02:50:29.475Z,18.30
2022-10-19T02:51:00.031Z,14.80
2022-10-19T02:51:30.621Z,19.70
2022-10-19T02:52:01.185Z,16.70
2022-10-19T02:52:31.776Z,13.00
2022-10-19T02:53:02.330Z,16.40
2022-10-19T02:53:33.060Z,17.50
2022-10-19T02:54:05.239Z,19.30
2022-10-19T02:54:34.523Z,15.60
2022-10-19T02:55:05.116Z,18.90
2022-10-19T02:55:35.719Z,18.80
2022-10-19T02:56:06.276Z,17.60
2022-10-19T02:56:36.834Z,14.90
2022-10-19T02:57:07.421Z,16.30
2022-10-19T02:57:38.003Z,16.70
2022-10-19T02:58:08.603Z,17.50
2022-10-19T02:58:39.177Z,16.90
2022-10-19T02:59:09.733Z,18.40
2022-10-19T02:59:40.298Z,16.70
2022-10-19T03:00:10.869Z,15.10
2022-10-19T03:00:41.482Z,16.20
2022-10-19T03:01:12.081Z,19.60
2022-10-19T03:01:42.632Z,17.00
2022-10-19T03:02:13.211Z,18.00
2022-10-19T03:02:43.802Z,17.70
2022-10-19T03:03:14.391Z,15.60
2022-10-19T03:03:44.965Z,16.80
2022-10-19T03:04:15.530Z,14.70
2022-10-19T03:05:16.714Z,16.50
2022-10-19T03:05:47.250Z,15.20
2022-10-19T03:06:17.836Z,19.20
2022-10-19T03:06:48.397Z,14.10
2022-10-19T03:07:18.924Z,17.20
2022-10-19T03:07:49.484Z,16.10
2022-10-19T03:08:20.075Z,17.10
2022-10-19T03:08:50.622Z,16.60
2022-10-19T03:09:21.203Z,13.80
2022-10-19T03:09:51.731Z,16.50
2022-10-19T03:10:22.302Z,16.60
2022-10-19T03:10:52.881Z,18.50
2022-10-19T03:11:23.443Z,17.50
2022-10-19T03:11:53.992Z,16.50
2022-10-19T03:12:24.583Z,16.80
2022-10-19T03:12:55.175Z,15.10
2022-10-19T03:13:25.762Z,20.10
2022-10-19T03:13:56.322Z,14.70
2022-10-19T03:14:26.915Z,16.20
2022-10-19T03:14:57.491Z,17.00
2022-10-19T03:15:28.067Z,14.30
2022-10-19T03:15:58.635Z,13.60
2022-10-19T03:16:29.240Z,15.10
2022-10-19T03:16:59.795Z,14.60
2022-10-19T03:17:30.368Z,17.70
2022-10-19T03:18:01.011Z,15.90
2022-10-19T03:18:31.682Z,16.30
2022-10-19T03:19:02.208Z,14.80
2022-10-19T03:19:32.799Z,14.60
2022-10-19T03:20:03.378Z,15.50
2022-10-19T03:20:33.977Z,16.80
2022-10-19T03:21:04.513Z,13.30
2022-10-19T03:21:35.099Z,13.60
2022-10-19T03:22:05.680Z,21.40
2022-10-19T03:22:36.232Z,15.50
2022-10-19T03:23:06.813Z,18.70
2022-10-19T03:23:37.396Z,15.70
2022-10-19T03:24:07.959Z,18.00
2022-10-19T03:24:38.502Z,15.30
2022-10-19T03:25:09.058Z,15.50
2022-10-19T03:25:39.669Z,17.50
2022-10-19T03:26:12.253Z,14.10
2022-10-19T03:26:40.956Z,16.00
2022-10-19T03:27:11.525Z,14.30
2022-10-19T03:27:42.115Z,15.60
2022-10-19T03:28:12.693Z,14.60
2022-10-19T03:28:43.395Z,15.00
2022-10-19T03:29:14.044Z,15.80
2022-10-19T03:29:44.582Z,15.60
2022-10-19T03:30:15.148Z,16.90
2022-10-19T03:30:45.696Z,15.90
2022-10-19T03:31:16.283Z,16.20
2022-10-19T03:31:46.861Z,14.00
2022-10-19T03:32:17.385Z,16.90
2022-10-19T03:32:47.959Z,14.40
2022-10-19T03:33:18.612Z,14.80
2022-10-19T03:33:49.157Z,16.00
2022-10-19T03:34:19.758Z,16.60
2022-10-19T03:34:50.327Z,18.00
2022-10-19T03:35:20.920Z,14.50
2022-10-19T03:35:51.489Z,18.00
2022-10-19T03:36:22.017Z,13.50
2022-10-19T03:36:52.593Z,17.20
2022-10-19T03:37:23.141Z,13.80
2022-10-19T03:37:53.736Z,14.50
2022-10-19T03:38:24.323Z,13.70
2022-10-19T03:38:54.904Z,17.40
2022-10-19T03:39:25.476Z,15.30
2022-10-19T03:39:56.032Z,15.40
2022-10-19T03:40:26.609Z,16.40
2022-10-19T03:40:57.163Z,21.20
2022-10-19T03:41:27.759Z,16.60
2022-10-19T03:41:58.335Z,17.20
2022-10-19T03:42:28.893Z,16.00
2022-10-19T03:42:59.459Z,15.50
2022-10-19T03:43:30.033Z,16.30
2022-10-19T03:44:31.176Z,14.80
2022-10-19T03:45:01.781Z,18.10
2022-10-19T03:45:32.350Z,14.40
2022-10-19T03:46:02.949Z,14.40
2022-10-19T03:46:33.498Z,18.60
2022-10-19T03:47:04.072Z,15.40
2022-10-19T03:47:35.022Z,17.30
2022-10-19T03:48:05.198Z,14.40
2022-10-19T03:48:35.741Z,15.70
2022-10-19T03:49:06.313Z,17.30
2022-10-19T03:49:39.513Z,16.40
2022-10-19T03:50:07.763Z,15.00
2022-10-19T03:50:38.351Z,14.10
2022-10-19T03:51:08.947Z,20.20
2022-10-19T03:51:39.483Z,17.70
2022-10-19T03:52:10.237Z,16.60
2022-10-19T03:52:40.857Z,18.00
2022-10-19T03:53:11.441Z,19.30
2022-10-19T03:53:42.019Z,16.00
2022-10-19T03:54:12.616Z,19.00
2022-10-19T03:54:43.189Z,20.20
2022-10-19T03:55:13.786Z,16.50
2022-10-19T03:55:44.328Z,16.80
2022-10-19T03:56:14.966Z,17.70
2022-10-19T03:56:45.541Z,16.00
2022-10-19T03:57:16.104Z,15.40
2022-10-19T03:57:46.650Z,18.20
2022-10-19T03:58:17.239Z,14.90
2022-10-19T03:58:47.826Z,16.00
2022-10-19T03:59:18.394Z,15.10
2022-10-19T03:59:48.963Z,14.80
2022-10-19T04:00:19.512Z,18.20
2022-10-19T04:00:50.136Z,16.80
2022-10-19T04:01:20.858Z,18.40
2022-10-19T04:01:51.437Z,15.10
2022-10-19T04:02:21.993Z,17.30
2022-10-19T04:02:52.582Z,19.80
2022-10-19T04:03:23.155Z,21.20
2022-10-19T04:03:53.691Z,18.20
2022-10-19T04:04:24.256Z,18.60
2022-10-19T04:04:54.863Z,16.70
2022-10-19T04:05:25.453Z,20.50
2022-10-19T04:05:56.048Z,14.30
2022-10-19T04:06:26.636Z,17.70
2022-10-19T04:06:57.207Z,18.00
2022-10-19T04:07:27.790Z,14.20
2022-10-19T04:07:58.319Z,16.10
2022-10-19T04:08:28.894Z,15.70
2022-10-19T04:08:59.462Z,13.60
2022-10-19T04:09:30.026Z,17.40
2022-10-19T04:10:00.613Z,17.40
2022-10-19T04:10:31.178Z,18.30
2022-10-19T04:11:01.749Z,16.50
2022-10-19T04:11:32.313Z,14.70
2022-10-19T04:12:02.897Z,15.80
2022-10-19T04:12:33.490Z,18.60
2022-10-19T04:13:04.057Z,17.80
2022-10-19T04:13:34.617Z,19.30
2022-10-19T04:14:05.310Z,18.50
2022-10-19T04:14:52.410Z,16.70
2022-10-19T04:15:06.703Z,18.80
2022-10-19T04:15:37.265Z,17.10
2022-10-19T04:16:07.842Z,18.30
2022-10-19T04:16:38.416Z,15.00
2022-10-19T04:17:08.984Z,19.00
2022-10-19T04:17:39.514Z,18.50
2022-10-19T04:18:10.078Z,16.80
2022-10-19T04:18:40.710Z,20.00
2022-10-19T04:19:11.278Z,18.60
2022-10-19T04:19:41.858Z,20.40
2022-10-19T04:20:12.402Z,19.40
2022-10-19T04:20:42.969Z,17.30
2022-10-19T04:21:13.548Z,18.30
2022-10-19T04:21:44.148Z,19.60
2022-10-19T04:22:14.699Z,17.80
2022-10-19T04:22:45.290Z,16.30
2022-10-19T04:23:46.395Z,17.10
2022-10-19T04:24:16.997Z,17.60
2022-10-19T04:24:47.555Z,15.60
2022-10-19T04:25:18.147Z,17.10
2022-10-19T04:25:48.743Z,18.20
2022-10-19T04:26:19.298Z,17.30
2022-10-19T04:26:49.871Z,17.00
2022-10-19T04:27:20.442Z,17.90
2022-10-19T04:27:50.993Z,18.60
2022-10-19T04:28:21.551Z,18.60
2022-10-19T04:28:52.192Z,16.30
2022-10-19T04:29:25.023Z,19.20
2022-10-19T04:29:53.538Z,18.00
2022-10-19T04:30:24.127Z,18.40
2022-10-19T04:30:54.694Z,17.10
2022-10-19T04:31:25.261Z,18.20
2022-10-19T04:31:55.838Z,17.70
2022-10-19T04:32:26.423Z,17.90
2022-10-19T04:32:57.006Z,19.20
2022-10-19T04:33:27.559Z,15.90
2022-10-19T04:33:58.115Z,16.40
2022-10-19T04:34:28.709Z,19.60
2022-10-19T04:34:59.282Z,14.60
2022-10-19T04:35:29.869Z,19.00
2022-10-19T04:36:00.480Z,17.20
2022-10-19T04:36:31.108Z,13.90
2022-10-19T04:37:01.710Z,16.70
2022-10-19T04:37:32.754Z,16.50
2022-10-19T04:38:02.901Z,17.00
2022-10-19T04:38:33.444Z,15.40
2022-10-19T04:39:04.006Z,17.10
2022-10-19T04:39:34.580Z,15.50
2022-10-19T04:40:05.152Z,18.80
2022-10-19T04:40:35.689Z,19.00
2022-10-19T04:41:06.257Z,18.40
2022-10-19T04:41:36.857Z,15.70
2022-10-19T04:42:07.448Z,16.50
2022-10-19T04:42:38.011Z,13.40
2022-10-19T04:43:08.591Z,14.40
2022-10-19T04:43:39.137Z,17.10
2022-10-19T04:44:09.804Z,18.10
2022-10-19T04:44:40.417Z,14.50
2022-10-19T04:45:10.960Z,16.00
2022-10-19T04:45:41.539Z,14.70
2022-10-19T04:46:12.117Z,17.00
2022-10-19T04:46:42.705Z,15.80
2022-10-19T04:47:13.275Z,13.30
2022-10-19T04:47:43.840Z,17.50
2022-10-19T04:48:15.229Z,15.30
2022-10-19T04:48:45.423Z,16.30
2022-10-19T04:49:19.382Z,16.90
2022-10-19T04:49:45.780Z,17.10
2022-10-19T04:50:17.375Z,16.00
2022-10-19T04:50:47.927Z,14.60
2022-10-19T04:51:18.508Z,15.70
2022-10-19T04:51:49.072Z,17.10
2022-10-19T04:52:19.663Z,12.40
2022-10-19T04:52:50.218Z,14.40
2022-10-19T04:53:20.902Z,15.50
2022-10-19T04:53:52.508Z,15.90
2022-10-19T04:54:22.374Z,14.20
2022-10-19T04:54:52.957Z,13.90
2022-10-19T04:55:23.531Z,16.30
2022-10-19T04:55:54.085Z,14.50
2022-10-19T04:56:24.673Z,13.80
2022-10-19T04:56:55.261Z,14.10
2022-10-19T04:57:25.819Z,18.40
2022-10-19T04:57:56.458Z,12.70
2022-10-19T04:58:27.004Z,13.60
2022-10-19T04:58:57.643Z,13.70
2022-10-19T04:59:28.186Z,16.60
2022-10-19T04:59:58.754Z,14.30
2022-10-19T05:00:29.323Z,15.70
2022-10-19T05:01:00.003Z,16.10
2022-10-19T05:01:30.643Z,15.20
2022-10-19T05:02:01.190Z,13.90
2022-10-19T05:02:31.759Z,14.40
2022-10-19T05:03:02.320Z,14.00
2022-10-19T05:03:32.888Z,15.20
2022-10-19T05:04:03.484Z,11.20
2022-10-19T05:04:34.062Z,13.50
2022-10-19T05:05:04.650Z,16.50
2022-10-19T05:05:35.226Z,12.60
2022-10-19T05:06:05.814Z,12.10
2022-10-19T05:06:36.386Z,13.60
2022-10-19T05:07:06.999Z,19.70
2022-10-19T05:07:37.577Z,14.90
2022-10-19T05:08:08.179Z,11.80
2022-10-19T05:08:38.948Z,14.80
2022-10-19T05:09:09.805Z,13.20
2022-10-19T05:09:41.114Z,14.40
2022-10-19T05:10:12.356Z,13.20
2022-10-19T05:10:44.311Z,14.60
2022-10-19T05:11:13.170Z,12.00
2022-10-19T05:11:44.278Z,13.00
2022-10-19T05:12:14.324Z,13.40
2022-10-19T05:12:44.978Z,14.60
2022-10-19T05:13:15.547Z,11.50
2022-10-19T05:13:46.133Z,13.90
2022-10-19T05:14:16.789Z,11.50
2022-10-19T05:14:47.350Z,12.30
2022-10-19T05:15:17.920Z,13.30
2022-10-19T05:15:48.516Z,10.80
2022-10-19T05:16:19.125Z,11.50
2022-10-19T05:16:49.742Z,11.60
2022-10-19T05:17:20.272Z,12.00
2022-10-19T05:17:50.861Z,12.90
2022-10-19T05:18:21.557Z,15.00
2022-10-19T05:18:52.124Z,15.30
2022-10-19T05:19:22.696Z,15.70
2022-10-19T05:19:53.245Z,13.40
2022-10-19T05:20:23.929Z,15.50
2022-10-19T05:20:54.451Z,12.50
2022-10-19T05:21:25.454Z,13.00
2022-10-19T05:21:56.490Z,14.10
2022-10-19T05:22:27.022Z,11.70
2022-10-19T05:22:57.678Z,11.10
2022-10-19T05:23:28.270Z,14.70
2022-10-19T05:23:58.841Z,15.30
2022-10-19T05:24:29.396Z,14.40
2022-10-19T05:24:59.928Z,12.00
2022-10-19T05:25:30.462Z,14.50
2022-10-19T05:26:01.043Z,12.20
2022-10-19T05:26:31.585Z,13.10
2022-10-19T05:27:02.117Z,12.90
2022-10-19T05:27:33.599Z,12.50
2022-10-19T05:28:03.896Z,12.70
2022-10-19T05:28:34.539Z,14.00
2022-10-19T05:29:05.160Z,13.40
2022-10-19T05:29:35.680Z,11.70
2022-10-19T05:30:06.782Z,12.60
2022-10-19T05:30:37.318Z,13.30
2022-10-19T05:31:07.870Z,12.20
2022-10-19T05:31:38.414Z,12.30
2022-10-19T05:32:08.941Z,17.80
2022-10-19T05:32:39.467Z,14.00
2022-10-19T05:33:10.001Z,9.90
2022-10-19T05:33:40.565Z,11.90
2022-10-19T05:34:11.089Z,13.20
2022-10-19T05:34:41.596Z,14.00
2022-10-19T05:35:12.663Z,14.40
2022-10-19T05:35:43.184Z,14.90
2022-10-19T05:36:13.722Z,10.70
2022-10-19T05:36:44.735Z,14.50
2022-10-19T05:37:15.782Z,13.10
2022-10-19T05:37:46.299Z,14.30
2022-10-19T05:38:16.850Z,12.80
2022-10-19T05:38:47.345Z,11.70
2022-10-19T05:39:17.887Z,13.00
2022-10-19T05:39:48.386Z,12.50
2022-10-19T05:40:19.402Z,11.30
2022-10-19T05:40:53.496Z,11.10
2022-10-19T05:41:20.604Z,12.70
2022-10-19T05:41:51.140Z,11.50
2022-10-19T05:42:22.147Z,10.90
2022-10-19T05:42:53.158Z,14.30
2022-10-19T05:43:23.683Z,12.30
2022-10-19T05:43:54.697Z,10.50
2022-10-19T05:44:25.793Z,13.40
2022-10-19T05:44:56.294Z,12.70
2022-10-19T05:45:27.312Z,15.80
2022-10-19T05:45:58.405Z,13.40
2022-10-19T05:46:28.943Z,11.20
2022-10-19T05:46:59.454Z,10.90
2022-10-19T05:47:31.079Z,12.40
2022-10-19T05:48:00.725Z,13.00
2022-10-19T05:48:31.241Z,11.40
2022-10-19T05:49:02.289Z,12.20
2022-10-19T05:49:32.851Z,10.90
2022-10-19T05:50:03.379Z,13.40
2022-10-19T05:50:34.383Z,12.60
2022-10-19T05:51:05.398Z,14.40
2022-10-19T05:51:36.442Z,14.70
2022-10-19T05:52:06.952Z,12.60
2022-10-19T05:52:38.067Z,12.20
2022-10-19T05:53:08.661Z,11.90
2022-10-19T05:54:10.168Z,14.00
2022-10-19T05:54:41.204Z,12.90
2022-10-19T05:55:11.749Z,12.70
2022-10-19T05:55:42.292Z,12.50
2022-10-19T05:56:12.802Z,14.80
2022-10-19T05:56:43.360Z,14.20
2022-10-19T05:57:13.948Z,10.70
2022-10-19T05:57:44.534Z,13.50
2022-10-19T05:58:15.059Z,13.40
2022-10-19T05:58:45.608Z,16.90
2022-10-19T05:59:16.153Z,13.20
2022-10-19T05:59:47.167Z,17.20
2022-10-19T06:00:17.688Z,14.70
2022-10-19T06:00:48.724Z,13.60
2022-10-19T06:01:19.249Z,14.90
2022-10-19T06:01:50.298Z,13.10
2022-10-19T06:02:20.873Z,15.10
2022-10-19T06:02:54.668Z,15.80
2022-10-19T06:03:22.626Z,15.40
2022-10-19T06:03:53.666Z,13.10
2022-10-19T06:04:24.190Z,13.00
2022-10-19T06:04:55.202Z,14.10
2022-10-19T06:05:26.232Z,12.80
2022-10-19T06:05:57.268Z,15.30
2022-10-19T06:06:28.283Z,13.80
2022-10-19T06:06:58.807Z,13.10
2022-10-19T06:07:29.924Z,12.80
2022-10-19T06:08:00.430Z,12.00
2022-10-19T06:08:30.952Z,13.10
2022-10-19T06:09:01.515Z,16.20
2022-10-19T06:09:32.521Z,12.70
2022-10-19T06:10:03.045Z,14.50
2022-10-19T06:10:33.565Z,13.80
2022-10-19T06:11:04.598Z,12.30
2022-10-19T06:11:35.627Z,13.80
2022-10-19T06:12:06.652Z,12.80
2022-10-19T06:12:37.685Z,13.70
2022-10-19T06:13:08.200Z,15.40
2022-10-19T06:13:38.737Z,14.00
2022-10-19T06:14:09.253Z,14.10
2022-10-19T06:14:40.342Z,15.20
2022-10-19T06:15:10.855Z,13.70
2022-10-19T06:15:41.879Z,15.60
2022-10-19T06:16:12.410Z,15.00
2022-10-19T06:16:43.405Z,12.20
2022-10-19T06:17:14.445Z,13.40
2022-10-19T06:17:45.034Z,18.00
2022-10-19T06:18:15.535Z,15.70
2022-10-19T06:18:46.054Z,13.90
2022-10-19T06:19:16.581Z,13.90
2022-10-19T06:19:47.151Z,15.30
2022-10-19T06:20:17.661Z,14.70
2022-10-19T06:20:48.668Z,15.90
2022-10-19T06:21:19.735Z,14.00
2022-10-19T06:21:50.237Z,13.40
2022-10-19T06:22:21.248Z,14.80
2022-10-19T06:22:52.243Z,16.00
2022-10-19T06:23:22.770Z,17.30
2022-10-19T06:23:53.808Z,16.40
2022-10-19T06:24:24.851Z,18.50
2022-10-19T06:24:55.332Z,15.50
2022-10-19T06:25:26.358Z,16.80
2022-10-19T06:25:56.915Z,18.90
2022-10-19T06:26:27.395Z,19.60
2022-10-19T06:26:57.917Z,18.50
2022-10-19T06:27:28.954Z,15.50
2022-10-19T06:27:59.452Z,16.80
2022-10-19T06:28:30.490Z,17.20
2022-10-19T06:29:01.030Z,14.00
2022-10-19T06:29:31.539Z,18.00
2022-10-19T06:30:02.069Z,17.90
2022-10-19T06:30:32.687Z,17.00
2022-10-19T06:31:06.046Z,13.90
2022-10-19T06:31:33.931Z,13.80
2022-10-19T06:32:04.436Z,13.90
2022-10-19T06:32:35.476Z,15.70
2022-10-19T06:33:06.490Z,17.90
2022-10-19T06:33:37.107Z,15.90
2022-10-19T06:34:07.822Z,14.00
2022-10-19T06:34:38.328Z,15.30
2022-10-19T06:35:08.862Z,14.70
2022-10-19T06:35:39.379Z,17.60
2022-10-19T06:36:09.922Z,16.70
2022-10-19T06:36:40.436Z,17.40
2022-10-19T06:37:10.965Z,18.60
2022-10-19T06:37:41.484Z,15.30
2022-10-19T06:38:12.419Z,19.90
2022-10-19T06:38:42.969Z,15.70
2022-10-19T06:39:13.585Z,15.90
2022-10-19T06:39:44.715Z,15.80
2022-10-19T06:40:15.309Z,18.90
2022-10-19T06:40:45.828Z,16.80
2022-10-19T06:41:16.857Z,15.10